Latest Weather Observations for Casino

IDN60801

Issued at 8:33 am EST Wednesday 22 September 2021 (issued every 10 minutes, with the page automatically refreshed every 10 minutes)

About weather observations | Map of weather stations | Latest weather observations for NSW | Other Formats
Station Details ID: 058208 Name: CASINO AIRPORT AWS Lat: -28.88 Lon: 153.06 Height: 20.9 m
Data from the previous 72 hours. | See also: Recent months at Casino
Date/Time
EST
Temp
°C
App
Temp
°C
Dew
Point
°C
Rel
Hum
%
Delta-T
°C
Wind Press
QNH
hPa
Press
MSL
hPa
Rain since
9am
mm
Dir  Spd
km/h
Gust
km/h
Spd
kts
Gust
kts
22/08:30am 16.8 12.2 3.5 41 6.1 SW 17 28 9 15 1021.7 1021.6 0.0
22/08:00am 14.0 10.8 2.9 47 4.9 WNW 9 15 5 8 1021.8 1021.7 0.0
22/07:30am 12.2 9.1 3.7 56 3.8 NW 9 13 5 7 1021.5 1021.4 0.0
22/07:00am 9.8 6.6 2.9 62 2.9 NW 9 13 5 7 1021.2 1021.1 0.0
22/06:30am 7.4 4.8 3.1 74 1.8 WNW 6 11 3 6 1020.8 1020.7 0.0
22/06:00am 5.6 1.8 1.5 75 1.6 WNW 11 15 6 8 1020.4 1020.3 0.0
22/05:30am 5.6 1.8 1.7 76 1.6 WNW 11 13 6 7 1020.1 1020.0 0.0
22/05:00am 4.6 1.6 2.3 85 0.9 WNW 7 11 4 6 1019.7 1019.6 0.0
22/04:30am 4.0 0.8 0.7 79 1.3 NW 7 9 4 5 1019.3 1019.2 0.0
22/04:00am 6.4 2.9 1.3 70 2.0 NW 9 11 5 6 1018.9 1018.8 0.0
22/03:30am 4.6 1.3 0.2 73 1.7 NW 7 9 4 5 1018.9 1018.8 0.0
22/03:00am 6.9 3.4 1.2 67 2.3 WNW 9 11 5 6 1018.7 1018.6 0.0
22/02:30am 7.0 3.4 0.9 65 2.4 NW 9 11 5 6 1019.0 1018.9 0.0
22/02:00am 6.7 3.1 0.4 64 2.5 WNW 9 11 5 6 1019.1 1019.0 0.0
22/01:30am 7.4 3.8 0.8 63 2.6 NW 9 11 5 6 1019.3 1019.2 0.0
22/01:00am 7.7 4.1 0.4 60 2.9 NW 9 13 5 7 1019.5 1019.4 0.0
22/12:30am 7.9 4.3 0.9 61 2.8 NW 9 13 5 7 1019.6 1019.5 0.0
22/12:00am 7.9 4.3 0.6 60 2.9 NW 9 13 5 7 1019.6 1019.5 0.0
 
Date/Time
EST
Temp
°C
App
Temp
°C
Dew
Point
°C
Rel
Hum
%
Delta-T
°C
Wind Press
QNH
hPa
Press
MSL
hPa
Rain since
9am
mm
Dir  Spd
km/h
Gust
km/h
Spd
kts
Gust
kts
21/11:30pm 8.4 4.8 0.6 58 3.1 NW 9 11 5 6 1019.5 1019.4 0.0
21/11:00pm 8.6 4.8 -0.4 53 3.5 NW 9 11 5 6 1019.4 1019.3 0.0
21/10:30pm 9.7 5.9 -0.5 49 4.0 WNW 9 11 5 6 1019.0 1018.9 0.0
21/10:00pm 10.2 6.4 -0.6 47 4.3 WNW 9 11 5 6 1018.9 1018.8 0.0
21/09:30pm 10.5 6.6 -1.5 43 4.7 WNW 9 11 5 6 1018.8 1018.7 0.0
21/09:00pm 11.2 7.2 -2.2 39 5.2 W 9 15 5 8 1018.6 1018.5 0.0
21/08:30pm 11.5 7.4 -2.7 37 5.4 W 9 11 5 6 1018.4 1018.3 0.0
21/08:00pm 12.3 8.5 -3.9 32 6.1 W 7 11 4 6 1018.1 1018.0 0.0
21/07:30pm 13.0 9.2 -4.1 30 6.5 W 7 11 4 6 1017.6 1017.5 0.0
21/07:00pm 13.8 9.6 -3.9 29 6.8 WSW 9 15 5 8 1016.8 1016.7 0.0
21/06:30pm 14.2 10.2 -2.2 32 6.5 W 9 15 5 8 1016.0 1015.9 0.0
21/06:00pm 14.9 10.5 -2.1 31 6.8 W 11 20 6 11 1015.3 1015.2 0.0
21/05:30pm 15.2 9.7 -1.8 31 6.9 W 17 33 9 18 1014.6 1014.5 0.0
21/05:00pm 16.1 9.2 -2.4 28 7.5 W 24 43 13 23 1014.1 1014.0 0.0
21/04:30pm 16.8 10.3 -2.3 27 7.8 W 22 39 12 21 1013.4 1013.4 0.0
21/04:00pm 17.3 10.9 -1.4 28 7.8 W 22 41 12 22 1012.9 1012.9 0.0
21/03:30pm 17.7 10.0 -3.1 24 8.4 W 28 50 15 27 1012.2 1012.2 0.0
21/03:24pm 17.8 10.2 -2.5 25 8.4 W 28 50 15 27 1012.1 1012.1 0.0
21/03:00pm 19.8 12.8 -3.1 21 9.5 W 24 43 13 23 1011.7 1011.7 0.0
21/02:42pm 19.5 11.6 -4.7 19 9.7 W 28 48 15 26 1011.6 1011.6 0.0
21/02:30pm 20.1 12.9 -1.7 23 9.3 W 26 39 14 21 1011.6 1011.6 0.0
21/02:00pm 19.6 11.9 -2.7 22 9.3 WSW 28 50 15 27 1011.1 1011.1 0.0
21/01:54pm 21.5 14.4 -4.5 17 10.6 W 24 50 13 27 1010.9 1010.9 0.0
21/01:30pm 21.9 15.0 -2.7 19 10.5 WNW 24 41 13 22 1010.8 1010.8 0.0
21/01:00pm 21.9 14.6 -2.7 19 10.5 WSW 26 39 14 21 1010.8 1010.8 0.0
21/12:30pm 22.5 15.9 -3.0 18 10.9 W 22 39 12 21 1010.8 1010.8 0.0
21/12:00pm 23.0 16.0 -0.5 21 10.6 W 26 44 14 24 1010.5 1010.5 0.0
21/11:30am 23.5 17.8 0.6 22 10.5 W 20 39 11 21 1010.4 1010.4 0.0
21/11:18am 23.4 16.9 0.5 22 10.5 W 24 39 13 21 1010.5 1010.5 0.0
21/11:00am 22.2 20.2 7.2 38 7.8 WNW 7 13 4 7 1010.5 1010.5 0.0
21/10:30am 21.7 20.6 12.0 54 5.4 NNE 9 15 5 8 1011.0 1011.0 0.0
21/10:00am 20.2 19.2 10.9 55 5.1 SSE 7 17 4 9 1011.3 1011.3 0.0
21/09:30am 20.5 18.7 12.2 59 4.7 E 13 20 7 11 1011.5 1011.5 0.0
21/09:00am 19.8 18.5 12.6 63 4.1 SE 11 17 6 9 1012.0 1012.0 1.2
21/08:30am 18.1 15.6 12.3 69 3.2 SSW 17 24 9 13 1012.7 1012.7 1.2
21/08:00am 18.0 15.6 12.5 70 3.1 S 17 26 9 14 1012.4 1012.4 1.2
21/07:30am 17.8 15.5 13.1 74 2.6 S 17 24 9 13 1012.0 1012.0 1.2
21/07:00am 18.0 16.6 13.5 75 2.6 SSE 13 24 7 13 1011.8 1011.8 1.2
21/06:30am 16.8 16.7 16.0 95 0.5 SW 11 28 6 15 1010.6 1010.6 1.2
21/06:00am 16.8 17.4 15.8 94 0.6 WNW 7 11 4 6 1009.8 1009.8 1.2
21/05:30am 17.2 17.8 15.9 92 0.8 W 7 9 4 5 1009.5 1009.5 1.2
21/05:00am 18.2 18.6 16.2 88 1.2 NW 9 15 5 8 1009.2 1009.2 1.2
21/04:30am 18.4 18.5 16.6 89 1.1 NNW 11 15 6 8 1008.6 1008.6 1.0
21/04:00am 18.6 18.4 16.6 88 1.2 NNW 13 17 7 9 1008.5 1008.5 1.0
21/03:30am 18.8 18.6 16.8 88 1.2 NNW 13 19 7 10 1008.7 1008.7 1.0
21/03:00am 19.2 19.1 17.0 87 1.3 NNW 13 17 7 9 1008.7 1008.7 1.0
21/02:30am 18.9 19.5 17.6 92 0.8 NNW 11 19 6 10 1009.1 1009.1 1.0
21/02:00am 18.7 19.8 17.2 91 0.9 NNW 7 11 4 6 1009.2 1009.2 1.0
21/01:30am 19.8 20.2 17.2 85 1.6 NW 11 20 6 11 1009.9 1009.9 1.0
21/01:00am 20.8 18.7 17.2 80 2.2 NNW 24 32 13 17 1010.2 1010.2 0.8
21/12:30am 21.0 19.0 17.4 80 2.2 NNW 24 39 13 21 1010.3 1010.3 0.8
21/12:00am 20.7 18.2 17.1 80 2.2 NNW 26 35 14 19 1010.3 1010.3 0.8
 
Date/Time
EST
Temp
°C
App
Temp
°C
Dew
Point
°C
Rel
Hum
%
Delta-T
°C
Wind Press
QNH
hPa
Press
MSL
hPa
Rain since
9am
mm
Dir  Spd
km/h
Gust
km/h
Spd
kts
Gust
kts
20/11:30pm 21.0 19.2 17.0 78 2.4 NNW 22 33 12 18 1010.4 1010.4 0.8
20/11:00pm 20.8 19.4 17.0 79 2.3 NNW 20 28 11 15 1010.7 1010.7 0.8
20/10:30pm 20.5 20.1 17.1 81 2.1 NNW 15 22 8 12 1011.0 1011.0 0.8
20/10:00pm 20.8 20.1 17.4 81 2.1 NNW 17 24 9 13 1011.1 1011.1 0.8
20/09:30pm 21.0 19.8 17.4 80 2.2 NNW 20 30 11 16 1011.3 1011.3 0.8
20/09:00pm 21.7 19.2 17.1 75 2.8 NNW 26 41 14 22 1011.7 1011.7 0.8
20/08:30pm 22.2 20.0 16.9 72 3.2 NNW 24 43 13 23 1012.2 1012.2 0.8
20/08:00pm 22.4 21.1 16.9 71 3.4 NNW 19 24 10 13 1011.8 1011.8 0.8
20/07:30pm 22.5 21.0 16.8 70 3.5 NNW 20 33 11 18 1011.7 1011.7 0.8
20/07:00pm 22.4 21.6 17.1 72 3.3 N 17 30 9 16 1011.6 1011.6 0.8
20/06:30pm 21.1 22.1 16.9 77 2.6 NW 7 11 4 6 1012.0 1012.0 0.6
20/06:10pm 22.1 20.8 15.7 67 3.8 W 17 26 9 14 1012.1 1012.1 0.6
20/06:00pm 24.2 20.7 14.6 55 5.7 NNW 26 39 14 21 1011.6 1011.6 0.4
20/05:50pm 26.9 24.3 13.3 43 8.0 N 19 30 10 16 1010.3 1010.3 0.0
20/05:30pm 26.8 24.2 13.2 43 8.0 N 19 28 10 15 1010.0 1010.0 0.0
20/05:00pm 27.4 24.2 13.0 41 8.5 NNW 22 35 12 19 1010.0 1010.0 0.0
20/04:30pm 28.7 24.6 12.6 37 9.4 N 26 35 14 19 1009.8 1009.8 0.0
20/04:00pm 29.1 26.9 13.3 37 9.4 NNW 17 26 9 14 1010.0 1010.0 0.0
20/03:30pm 30.2 27.2 12.6 34 10.4 NNW 20 32 11 17 1010.2 1010.2 0.0
20/03:00pm 29.6 25.6 12.9 35 9.9 N 26 35 14 19 1010.3 1010.3 0.0
20/02:30pm 31.1 27.0 13.8 34 10.4 N 28 35 15 19 1010.8 1010.8 0.0
20/02:00pm 30.4 26.3 12.8 34 10.4 N 26 35 14 19 1011.3 1011.3 0.0
20/01:30pm 31.2 28.2 14.8 37 10.0 N 24 35 13 19 1011.9 1011.9 0.0
20/01:00pm 30.0 26.5 13.3 36 10.0 N 24 33 13 18 1012.8 1012.8 0.0
20/12:30pm 29.8 26.6 13.1 36 9.9 N 22 35 12 19 1013.3 1013.3 0.0
20/12:00pm 28.8 25.3 13.5 39 9.1 N 24 32 13 17 1014.4 1014.3 0.0
20/11:30am 29.0 25.6 12.4 36 9.7 NNW 22 32 12 17 1015.4 1015.3 0.0
20/11:00am 28.5 25.5 13.6 40 8.9 NNW 22 32 12 17 1016.2 1016.1 0.0
20/10:30am 27.5 24.8 13.4 41 8.3 NNW 20 32 11 17 1017.0 1016.9 0.0
20/10:00am 26.5 24.6 15.8 51 6.5 NNW 20 30 11 16 1017.6 1017.5 0.0
20/09:30am 24.6 22.1 15.2 55 5.6 NNW 22 32 12 17 1018.4 1018.3 0.0
20/09:00am 23.5 21.5 15.0 59 5.1 NNW 19 28 10 15 1019.0 1018.9 0.0
20/08:30am 20.8 19.1 15.8 73 3.0 NNW 19 28 10 15 1019.4 1019.3 0.0
20/08:00am 18.2 18.0 15.6 85 1.5 NW 11 15 6 8 1019.7 1019.6 0.0
20/07:30am 15.4 15.8 15.2 99 0.1 WNW 7 11 4 6 1020.0 1019.9 0.0
20/07:00am 13.2 13.0 13.0 99 0.1 NNW 6 7 3 4 1019.7 1019.6 0.0
20/06:30am 11.7 10.5 11.5 99 0.1 WNW 9 13 5 7 1019.7 1019.6 0.0
20/06:00am 11.4 10.5 11.2 99 0.1 WNW 7 11 4 6 1019.6 1019.5 0.0
20/05:30am 11.5 10.6 11.3 99 0.1 WNW 7 9 4 5 1019.6 1019.5 0.0
20/05:00am 10.9 9.8 10.7 99 0.1 W 7 13 4 7 1019.7 1019.6 0.0
20/04:30am 10.1 9.0 10.0 99 0.1 W 6 9 3 5 1019.6 1019.5 0.0
20/04:00am 9.3 8.7 9.0 98 0.1 N 2 6 1 3 1019.2 1019.1 0.0
20/03:30am 9.3 8.3 9.0 98 0.1 N 4 7 2 4 1019.4 1019.3 0.0
20/03:00am 9.8 9.3 9.5 98 0.1 WNW 2 6 1 3 1019.6 1019.5 0.0
20/02:30am 11.4 10.6 11.1 98 0.2 W 6 6 3 3 1019.9 1019.8 0.0
20/02:00am 10.9 10.0 10.6 98 0.2 W 6 9 3 5 1019.8 1019.7 0.0
20/01:30am 11.2 10.4 10.9 98 0.2 WNW 6 7 3 4 1020.0 1019.9 0.0
20/01:00am 11.6 11.6 11.3 98 0.2 WNW 2 7 1 4 1020.5 1020.4 0.0
20/12:30am 12.3 12.9 11.8 97 0.3 CALM 0 0 0 0 1020.7 1020.6 0.0
20/12:00am 11.4 11.7 10.8 96 0.3 CALM 0 0 0 0 1020.9 1020.8 0.0
 
Date/Time
EST
Temp
°C
App
Temp
°C
Dew
Point
°C
Rel
Hum
%
Delta-T
°C
Wind Press
QNH
hPa
Press
MSL
hPa
Rain since
9am
mm
Dir  Spd
km/h
Gust
km/h
Spd
kts
Gust
kts
19/11:30pm 13.1 12.8 12.6 97 0.3 W 6 7 3 4 1021.1 1021.0 0.0
19/11:00pm 13.8 13.5 13.3 97 0.3 W 7 11 4 6 1021.2 1021.1 0.0
19/10:30pm 12.9 13.5 12.0 94 0.5 CALM 0 0 0 0 1021.2 1021.1 0.0
19/10:00pm 13.7 14.5 12.4 92 0.7 CALM 0 0 0 0 1021.2 1021.1 0.0
19/09:30pm 14.5 14.7 12.9 90 0.9 SE 4 7 2 4 1021.2 1021.1 0.0
19/09:00pm 15.6 15.7 14.0 90 0.9 SE 6 6 3 3 1021.3 1021.2 0.0
19/08:30pm 16.4 16.4 14.2 87 1.3 ESE 7 7 4 4 1021.4 1021.3 0.0
19/08:00pm 16.6 16.8 14.1 85 1.4 SE 6 7 3 4 1021.3 1021.2 0.0
19/07:30pm 17.2 16.9 14.3 83 1.7 SE 9 13 5 7 1021.1 1021.0 0.0
19/07:00pm 17.8 17.2 14.5 81 1.9 SE 11 15 6 8 1020.8 1020.7 0.0
19/06:30pm 18.9 18.3 14.6 76 2.5 ESE 11 15 6 8 1020.5 1020.4 0.0
19/06:00pm 19.5 18.5 14.5 73 2.9 ESE 13 17 7 9 1020.3 1020.2 0.0
19/05:30pm 20.3 18.5 14.4 69 3.4 E 17 24 9 13 1020.1 1020.0 0.0
19/05:00pm 21.2 18.3 14.1 64 4.1 ESE 22 30 12 16 1019.8 1019.7 0.0
19/04:30pm 21.8 17.7 13.9 61 4.6 E 28 35 15 19 1019.5 1019.4 0.0
19/04:00pm 22.9 19.6 13.9 57 5.2 ESE 24 35 13 19 1019.2 1019.1 0.0
19/03:30pm 24.2 21.0 14.3 54 5.9 ESE 24 35 13 19 1019.3 1019.2 0.0
19/03:00pm 24.5 21.1 13.7 51 6.3 E 24 33 13 18 1019.4 1019.3 0.0
19/02:30pm 25.0 22.3 13.5 48 6.7 ESE 20 32 11 17 1019.7 1019.6 0.0
19/02:00pm 25.4 22.8 13.3 47 7.1 E 19 32 10 17 1020.2 1020.1 0.0
19/01:30pm 25.7 23.1 13.9 48 7.0 ESE 20 30 11 16 1020.6 1020.5 0.0
19/01:00pm 25.5 23.0 13.4 47 7.1 ESE 19 28 10 15 1021.1 1021.0 0.0
19/12:30pm 24.7 22.0 13.6 50 6.5 ESE 20 33 11 18 1021.4 1021.3 0.0
19/12:00pm 25.6 23.4 14.4 50 6.7 E 19 26 10 14 1022.0 1021.9 0.0
19/11:30am 24.2 21.1 12.2 47 6.8 ESE 20 30 11 16 1022.4 1022.3 0.0
19/11:00am 24.6 22.1 12.2 46 7.1 ESE 17 26 9 14 1022.9 1022.8 0.0
19/10:30am 24.6 22.2 12.5 46 7.0 SE 17 24 9 13 1023.1 1023.0 0.0
19/10:00am 24.1 22.4 12.4 48 6.7 SE 13 26 7 14 1023.3 1023.2 0.0
19/09:30am 24.2 21.2 10.5 42 7.6 ESE 17 24 9 13 1023.6 1023.5 0.0
19/09:00am 23.7 21.1 10.7 44 7.2 SE 15 24 8 13 1023.7 1023.6 0.0

Other formats

Comma delimited format used in spreadsheet applications
http://www.bom.gov.au/fwo/IDN60801/IDN60801.94573.axf

JavaScript Object Notation format (JSON) in row-major order
http://www.bom.gov.au/fwo/IDN60801/IDN60801.94573.json

Data quality

Most of these data are generated automatically and are frequently updated. Quality checks on data are not normally performed. It is possible for incorrect values to appear. Refer to information at About Latest Weather Observations and please check the disclaimer before using these data.